Time;durP1;ratioP1;P1;durP2;ratioP2;P2;SDS_P1;SDS_P2;PMS_P1;PMS_P2;Temp;Humidity;BMP_temperature;BMP_pressure;BME280_temperature;BME280_humidity;BME280_pressure;Samples;Min_cycle;Max_cycle;Signal;HPM_P1;HPM_P2
2022/03/02 00:19:37;;;;;;;;;;;;;;;8.00;80.58;99918.72;5037883;28;19924;-60
2022/03/02 00:25:08;;;;;;;;;;;;;;;8.48;70.90;99908.97;5035801;28;20506;-60
2022/03/02 00:28:11;;;;;;;;;;;;;;;6.62;77.35;99931.22;5037566;28;19913;-61
2022/03/02 00:34:13;;;;;;;;;;;;;;;6.75;81.07;99921.84;5035054;28;19948;-60
2022/03/02 00:36:39;;;;;;;;;;;;;;;6.39;78.60;99922.72;5038210;28;19947;-60
2022/03/02 00:48:35;;;;;;;;;;;;;;;7.46;74.43;99907.09;5036015;28;19927;-59
2022/03/02 00:57:12;;;;;;;;;;;;;;;8.38;69.51;99901.31;5038011;28;20002;-61
2022/03/02 00:59:37;;;;;;;;;;;;;;;8.30;74.55;99898.00;5038615;28;19921;-61
2022/03/02 01:08:11;;;;;;;;;;;;;;;8.62;73.47;99890.88;5033611;28;19947;-62
2022/03/02 01:38:37;;;;;;;;;;;;;;;7.46;87.36;99876.31;5057093;28;19928;-60
2022/03/02 01:59:25;;;;;;;;;;;;;;;6.33;92.85;99844.25;5060581;28;19973;-59
2022/03/02 02:01:51;;;;;;;;;;;;;;;6.16;95.10;99851.06;5061280;28;19925;-61
2022/03/02 02:38:10;;;;;;;;;;;;;;;6.67;95.54;99844.19;5057460;28;20451;-62
2022/03/02 02:40:36;;;;;;;;;;;;;;;6.66;97.02;99835.66;5060094;28;20039;-62
2022/03/02 02:43:04;;;;;;;;;;;;;;;6.99;96.75;99831.28;5060399;28;19925;-57
2022/03/02 02:48:45;;;;;;;;;;;;;;;7.16;95.28;99822.66;5059391;28;19927;-61
2022/03/02 03:09:24;;;;;;;;;;;;;;;7.56;96.61;99807.91;5058350;28;19938;-61
2022/03/02 03:11:50;;;;;;;;;;;;;;;7.47;93.96;99798.56;5058362;28;19924;-62
2022/03/02 03:20:25;;;;;;;;;;;;;;;7.20;95.37;99806.41;5058741;28;19928;-62
2022/03/02 03:22:51;;;;;;;;;;;;;;;6.94;95.47;99804.84;5049748;28;20207;-61
2022/03/02 03:28:19;;;;;;;;;;;;;;;6.27;98.38;99801.63;5053574;28;20003;-61
2022/03/02 03:39:53;;;;;;;;;;;;;;;6.49;100.00;99806.69;5051613;28;19928;-63
2022/03/02 03:42:19;;;;;;;;;;;;;;;6.98;96.82;99797.97;5054753;28;19929;-62
2022/03/02 03:47:57;;;;;;;;;;;;;;;6.34;94.29;99793.94;5055830;28;19961;-61
2022/03/02 04:05:43;;;;;;;;;;;;;;;5.97;88.71;99801.66;5064049;28;19916;-62
2022/03/02 04:08:08;;;;;;;;;;;;;;;5.99;92.09;99799.94;5065202;28;19978;-62
2022/03/02 04:10:34;;;;;;;;;;;;;;;6.12;92.15;99796.53;5064371;28;19920;-61
2022/03/02 04:12:59;;;;;;;;;;;;;;;6.12;96.12;99801.66;5064251;28;19920;-62
2022/03/02 04:15:24;;;;;;;;;;;;;;;6.03;93.98;99796.53;5064590;28;19920;-62
2022/03/02 04:17:50;;;;;;;;;;;;;;;6.98;88.75;99786.06;5063954;28;19927;-62
2022/03/02 04:20:16;;;;;;;;;;;;;;;7.32;86.03;99779.03;5064832;28;19970;-62
2022/03/02 04:22:41;;;;;;;;;;;;;;;7.19;86.93;99786.81;5064875;28;19935;-62
2022/03/02 04:25:07;;;;;;;;;;;;;;;6.10;93.03;99785.44;5064589;28;19916;-63
2022/03/02 04:27:32;;;;;;;;;;;;;;;5.15;100.00;99795.56;5064038;28;19916;-63
2022/03/02 04:29:57;;;;;;;;;;;;;;;5.28;100.00;99784.53;5064078;28;19917;-62
2022/03/02 04:32:23;;;;;;;;;;;;;;;5.49;100.00;99772.66;5064300;28;19920;-62
2022/03/02 04:34:48;;;;;;;;;;;;;;;5.61;100.00;99772.66;5064072;28;19932;-62
2022/03/02 05:08:12;;;;;;;;;;;;;;;7.58;87.52;99731.84;5059363;28;19921;-62
2022/03/02 05:16:52;;;;;;;;;;;;;;;5.49;100.00;99749.66;5062119;28;19928;-63
2022/03/02 05:19:17;;;;;;;;;;;;;;;5.25;100.00;99748.78;5064012;28;20353;-63
2022/03/02 05:28:12;;;;;;;;;;;;;;;5.72;100.00;99739.44;5059290;28;19920;-62
2022/03/02 05:58:27;;;;;;;;;;;;;;;5.93;95.29;99733.44;5047976;28;19919;-61
2022/03/02 06:19:12;;;;;;;;;;;;;;;6.20;94.49;99730.91;5057653;28;19969;-62
2022/03/02 06:28:12;;;;;;;;;;;;;;;6.81;89.09;99726.38;5060510;28;19916;-61
2022/03/02 06:43:34;;;;;;;;;;;;;;;4.96;100.00;99749.56;5054565;28;19920;-61
2022/03/02 06:46:00;;;;;;;;;;;;;;;5.20;100.00;99755.56;5062240;28;19924;-61
2022/03/02 06:48:51;;;;;;;;;;;;;;;5.89;100.00;99752.22;5063303;28;19913;-62
2022/03/02 06:51:17;;;;;;;;;;;;;;;5.74;100.00;99753.91;5062131;28;20378;-61
2022/03/02 06:53:44;;;;;;;;;;;;;;;5.95;100.00;99757.34;5062318;28;20930;-62
2022/03/02 06:56:09;;;;;;;;;;;;;;;5.69;99.85;99758.19;5062124;28;19926;-62
2022/03/02 06:58:34;;;;;;;;;;;;;;;6.20;97.01;99751.34;5043697;28;19920;-62
2022/03/02 07:01:00;;;;;;;;;;;;;;;5.83;97.40;99753.06;5059817;28;19977;-62
2022/03/02 07:03:26;;;;;;;;;;;;;;;6.17;95.99;99748.78;5030745;28;19924;-62
2022/03/02 07:05:51;;;;;;;;;;;;;;;6.48;94.54;99749.56;5029135;28;19916;-63
2022/03/02 07:08:17;;;;;;;;;;;;;;;6.39;92.39;99749.59;5044062;28;19924;-62
2022/03/02 07:10:42;;;;;;;;;;;;;;;6.13;93.61;99757.31;5060649;28;19978;-62
2022/03/02 07:13:09;;;;;;;;;;;;;;;6.00;95.59;99751.38;5061875;28;20027;-61
2022/03/02 07:15:34;;;;;;;;;;;;;;;5.96;94.06;99754.78;5061446;28;20405;-61
2022/03/02 07:18:02;;;;;;;;;;;;;;;5.59;97.74;99765.00;5042402;28;19928;-62
2022/03/02 07:20:28;;;;;;;;;;;;;;;5.96;97.41;99751.38;5062104;28;19913;-62
2022/03/02 07:22:53;;;;;;;;;;;;;;;5.97;95.53;99748.81;5062870;28;19942;-62
2022/03/02 07:25:20;;;;;;;;;;;;;;;6.05;96.67;99749.66;5062537;28;19917;-62
2022/03/02 07:28:21;;;;;;;;;;;;;;;5.90;93.99;99741.13;5062438;28;19950;-63
2022/03/02 07:49:08;;;;;;;;;;;;;;;6.33;95.61;99738.53;5034517;28;19974;-60
2022/03/02 07:58:13;;;;;;;;;;;;;;;5.95;100.00;99740.28;5036623;28;19979;-60
2022/03/02 08:09:53;;;;;;;;;;;;;;;6.18;100.00;99714.69;5040416;28;19952;-62
2022/03/02 08:12:22;;;;;;;;;;;;;;;6.62;100.00;99713.69;5041818;28;19998;-62
2022/03/02 08:18:28;;;;;;;;;;;;;;;7.42;94.12;99713.19;5034511;28;20613;-62
2022/03/02 08:30:32;;;;;;;;;;;;;;;9.03;84.17;99697.72;5057347;28;20011;-62
2022/03/02 08:32:58;;;;;;;;;;;;;;;9.17;84.59;99702.69;5060993;28;19924;-63
2022/03/02 08:35:23;;;;;;;;;;;;;;;9.15;76.95;99700.13;5061215;28;19913;-62
2022/03/02 08:37:48;;;;;;;;;;;;;;;9.36;80.63;99692.97;5041500;28;19913;-62
2022/03/02 08:59:09;;;;;;;;;;;;;;;9.76;61.87;99682.00;5058200;28;19927;-63
2022/03/02 09:01:36;;;;;;;;;;;;;;;10.08;58.68;99683.13;5059977;28;20445;-62
2022/03/02 09:04:02;;;;;;;;;;;;;;;11.09;50.55;99671.59;5040975;28;19921;-63
2022/03/02 09:06:27;;;;;;;;;;;;;;;10.15;51.01;99674.41;5060775;28;19926;-63
2022/03/02 09:08:54;;;;;;;;;;;;;;;9.93;52.21;99674.84;5060248;28;19913;-62
2022/03/02 09:11:20;;;;;;;;;;;;;;;11.30;49.89;99664.22;5060143;28;20393;-62
2022/03/02 09:13:45;;;;;;;;;;;;;;;11.56;45.68;99666.13;5059810;28;20002;-62
2022/03/02 09:16:10;;;;;;;;;;;;;;;11.45;53.50;99675.91;5041794;28;19912;-62
2022/03/02 09:18:36;;;;;;;;;;;;;;;10.22;50.52;99670.88;5060200;28;19920;-62
2022/03/02 09:21:02;;;;;;;;;;;;;;;10.75;51.16;99671.50;5060220;28;19920;-62
2022/03/02 09:23:28;;;;;;;;;;;;;;;11.72;52.26;99674.34;5059706;28;19917;-63
2022/03/02 09:25:54;;;;;;;;;;;;;;;12.03;55.15;99677.00;5059961;28;20283;-62
2022/03/02 09:28:19;;;;;;;;;;;;;;;11.27;50.66;99682.34;5024461;28;19927;-62
2022/03/02 09:36:54;;;;;;;;;;;;;;;11.28;51.17;99687.47;5058203;28;19919;-61
2022/03/02 09:39:19;;;;;;;;;;;;;;;11.30;51.50;99690.00;5059607;28;19917;-62
2022/03/02 09:47:56;;;;;;;;;;;;;;;10.96;64.92;99695.09;5057614;28;19924;-62
2022/03/02 09:50:22;;;;;;;;;;;;;;;9.42;67.44;99692.88;5059824;28;19944;-62
2022/03/02 09:52:47;;;;;;;;;;;;;;;10.11;70.58;99688.25;5060435;28;19967;-62
2022/03/02 09:55:14;;;;;;;;;;;;;;;9.59;65.75;99690.88;5063328;28;19923;-62
2022/03/02 09:57:43;;;;;;;;;;;;;;;9.68;76.15;99683.88;5063677;28;20416;-62
2022/03/02 10:00:09;;;;;;;;;;;;;;;10.54;64.57;99672.81;5063865;28;20340;-62
2022/03/02 10:02:39;;;;;;;;;;;;;;;11.07;62.93;99667.34;5063730;28;19917;-62
2022/03/02 10:05:09;;;;;;;;;;;;;;;10.67;58.74;99663.94;5064037;28;19939;-62
2022/03/02 10:07:40;;;;;;;;;;;;;;;11.07;65.12;99673.34;5063724;28;19947;-63
2022/03/02 10:10:07;;;;;;;;;;;;;;;11.08;69.15;99684.50;5063385;28;19916;-63
2022/03/02 10:12:32;;;;;;;;;;;;;;;11.35;68.16;99682.16;5063446;28;19916;-62
2022/03/02 10:14:58;;;;;;;;;;;;;;;10.37;69.29;99691.16;5064000;28;19942;-62
2022/03/02 10:17:24;;;;;;;;;;;;;;;10.45;71.50;99684.16;5063552;28;19951;-62
2022/03/02 10:19:54;;;;;;;;;;;;;;;10.84;66.57;99680.75;5044111;28;19925;-62
2022/03/02 10:22:23;;;;;;;;;;;;;;;12.39;68.75;99669.13;5062866;28;19947;-62
2022/03/02 10:24:49;;;;;;;;;;;;;;;9.41;73.13;99691.16;5063561;28;19924;-62
2022/03/02 10:27:34;;;;;;;;;;;;;;;9.99;69.46;99684.16;5063795;28;19917;-62
2022/03/02 10:30:05;;;;;;;;;;;;;;;11.70;68.61;99678.72;5054784;28;19924;-62
2022/03/02 10:32:32;;;;;;;;;;;;;;;11.08;61.87;99667.31;5063791;28;20301;-62
2022/03/02 10:35:00;;;;;;;;;;;;;;;10.62;67.67;99667.50;5044086;28;20409;-62
2022/03/02 10:37:38;;;;;;;;;;;;;;;11.03;65.98;99663.16;5063724;28;19926;-61
2022/03/02 10:40:13;;;;;;;;;;;;;;;11.41;65.04;99666.56;5063367;28;19958;-62
2022/03/02 10:42:41;;;;;;;;;;;;;;;12.63;56.84;99649.44;5063350;28;20608;-61
2022/03/02 10:48:16;;;;;;;;;;;;;;;12.81;58.42;99650.63;5060487;28;19920;-61
2022/03/02 10:50:42;;;;;;;;;;;;;;;12.02;58.04;99652.09;5063218;28;19921;-60
2022/03/02 11:05:39;;;;;;;;;;;;;;;12.66;59.89;99656.28;5063045;28;20374;-61
2022/03/02 11:20:26;;;;;;;;;;;;;;;12.25;57.60;99642.84;5017982;28;20031;-62
2022/03/02 11:31:54;;;;;;;;;;;;;;;12.84;54.00;99629.88;4917442;26;19981;-62
2022/03/02 11:34:20;;;;;;;;;;;;;;;12.03;53.29;99625.38;5112176;28;19956;-62
2022/03/02 11:37:08;;;;;;;;;;;;;;;13.84;57.50;99620.56;5112178;28;19958;-63
2022/03/02 11:45:47;;;;;;;;;;;;;;;14.44;55.92;99593.31;5111749;28;19921;-62
2022/03/02 11:48:13;;;;;;;;;;;;;;;13.37;50.93;99593.69;5111917;28;19937;-62
2022/03/02 11:50:58;;;;;;;;;;;;;;;14.47;52.25;99590.59;5111718;28;19911;-62
2022/03/02 11:53:29;;;;;;;;;;;;;;;13.60;51.98;99584.28;5111699;28;20376;-62
2022/03/02 11:55:57;;;;;;;;;;;;;;;14.71;53.12;99585.38;5111565;28;19912;-62
2022/03/02 12:08:16;;;;;;;;;;;;;;;13.74;49.00;99579.47;5111819;28;19934;-62
2022/03/02 12:29:35;;;;;;;;;;;;;;;14.07;43.40;99536.84;5048287;28;19913;-62
2022/03/02 12:38:24;;;;;;;;;;;;;;;13.05;43.92;99529.25;5070380;28;19924;-63
2022/03/02 12:59:42;;;;;;;;;;;;;;;13.67;47.99;99521.06;5069191;28;19962;-62
2022/03/02 13:02:08;;;;;;;;;;;;;;;14.23;50.24;99518.09;5069367;28;19916;-62
2022/03/02 13:04:48;;;;;;;;;;;;;;;14.03;48.42;99515.44;5070040;28;19956;-62
2022/03/02 13:07:43;;;;;;;;;;;;;;;14.51;45.20;99505.81;5052643;28;19964;-62
2022/03/02 13:16:25;;;;;;;;;;;;;;;13.56;46.73;99507.66;5007271;28;20268;-62
2022/03/02 13:18:51;;;;;;;;;;;;;;;13.66;46.85;99498.69;5008042;28;20375;-62
2022/03/02 13:21:24;;;;;;;;;;;;;;;14.23;45.19;99496.50;5008257;28;19924;-62
2022/03/02 13:24:04;;;;;;;;;;;;;;;12.95;45.11;99497.69;5007774;28;19913;-62
2022/03/02 13:26:29;;;;;;;;;;;;;;;13.80;43.36;99490.41;5007954;28;19914;-62
2022/03/02 13:28:59;;;;;;;;;;;;;;;13.42;45.52;99499.56;5010145;28;20324;-62
2022/03/02 13:31:24;;;;;;;;;;;;;;;13.30;44.87;99493.91;5024620;28;20003;-63
2022/03/02 13:33:56;;;;;;;;;;;;;;;12.81;44.33;99495.56;5031616;28;20430;-62
2022/03/02 13:36:39;;;;;;;;;;;;;;;13.12;45.33;99494.53;5030801;28;19917;-62
2022/03/02 13:48:52;;;;;;;;;;;;;;;12.90;43.72;99491.81;5070882;28;20385;-62
2022/03/02 13:51:18;;;;;;;;;;;;;;;13.71;45.18;99498.50;5027552;28;20007;-67
2022/03/02 13:53:48;;;;;;;;;;;;;;;12.63;44.39;99498.75;5098575;28;20064;-62
2022/03/02 13:56:17;;;;;;;;;;;;;;;12.68;44.77;99491.69;5076581;28;19955;-62
2022/03/02 13:58:44;;;;;;;;;;;;;;;13.58;43.74;99480.81;5096226;28;19922;-62
2022/03/02 14:01:11;;;;;;;;;;;;;;;13.21;43.04;99481.28;5092808;28;19943;-64
2022/03/02 14:03:43;;;;;;;;;;;;;;;12.89;42.98;99483.22;5092236;28;19916;-65
2022/03/02 14:06:09;;;;;;;;;;;;;;;12.88;42.70;99486.69;5093121;28;20479;-65
2022/03/02 14:08:44;;;;;;;;;;;;;;;12.95;44.23;99489.91;5091008;28;19927;-68
2022/03/02 14:11:10;;;;;;;;;;;;;;;12.64;42.75;99480.63;5084874;28;19957;-63
2022/03/02 14:13:35;;;;;;;;;;;;;;;12.77;43.12;99483.63;5103172;28;19969;-64
2022/03/02 14:16:01;;;;;;;;;;;;;;;12.80;43.57;99477.53;5093707;28;19934;-63
2022/03/02 14:18:27;;;;;;;;;;;;;;;12.80;45.04;99483.53;5077229;28;20433;-63
2022/03/02 14:27:02;;;;;;;;;;;;;;;12.33;45.58;99467.84;5091890;28;20533;-63
2022/03/02 14:29:29;;;;;;;;;;;;;;;12.71;44.21;99458.84;5096876;28;19920;-63
2022/03/02 14:31:59;;;;;;;;;;;;;;;13.25;43.17;99459.59;5068888;28;20392;-63
2022/03/02 14:34:25;;;;;;;;;;;;;;;12.43;42.44;99464.06;5074143;28;19930;-63
2022/03/02 14:37:07;;;;;;;;;;;;;;;13.46;42.61;99457.16;5073720;28;20002;-62
2022/03/02 14:58:19;;;;;;;;;;;;;;;12.12;43.79;99444.38;5072871;28;19935;-63
2022/03/02 15:07:16;;;;;;;;;;;;;;;11.71;43.69;99428.38;5067795;28;19926;-63
2022/03/02 15:09:50;;;;;;;;;;;;;;;11.59;41.97;99431.34;5073439;28;19938;-63
2022/03/02 15:18:24;;;;;;;;;;;;;;;11.87;44.38;99440.84;4972698;28;19944;-62
2022/03/02 15:20:51;;;;;;;;;;;;;;;11.70;43.56;99431.88;4972891;28;20036;-62
2022/03/02 15:23:16;;;;;;;;;;;;;;;11.89;44.46;99439.09;4973065;28;19918;-63
2022/03/02 15:25:42;;;;;;;;;;;;;;;11.67;42.11;99429.34;4974414;28;19914;-62
2022/03/02 15:28:07;;;;;;;;;;;;;;;11.36;42.96;99428.56;4974300;28;20004;-63
2022/03/02 15:30:34;;;;;;;;;;;;;;;11.44;42.60;99421.44;4981547;28;19925;-62
2022/03/02 15:33:11;;;;;;;;;;;;;;;11.84;43.46;99423.72;5011310;28;19928;-62
2022/03/02 15:38:51;;;;;;;;;;;;;;;12.24;42.93;99416.47;5010137;28;19960;-62
2022/03/02 15:50:27;;;;;;;;;;;;;;;11.05;46.05;99426.84;5008616;28;19928;-63
2022/03/02 15:52:57;;;;;;;;;;;;;;;12.24;47.19;99421.66;5063182;28;19912;-63
2022/03/02 15:55:23;;;;;;;;;;;;;;;11.32;44.17;99409.75;5092379;28;20373;-62
2022/03/02 15:57:52;;;;;;;;;;;;;;;11.18;46.18;99407.56;5092058;28;19989;-62
2022/03/02 16:00:18;;;;;;;;;;;;;;;11.29;46.30;99415.84;5088343;28;20018;-63
2022/03/02 16:02:43;;;;;;;;;;;;;;;11.01;45.67;99404.59;5075148;28;20022;-61
2022/03/02 16:05:09;;;;;;;;;;;;;;;10.62;46.65;99413.34;5089494;28;20298;-61
2022/03/02 16:07:35;;;;;;;;;;;;;;;10.93;46.25;99414.28;5094364;28;19920;-62
2022/03/02 16:10:00;;;;;;;;;;;;;;;11.43;47.45;99417.19;5083132;28;20062;-62
2022/03/02 16:12:40;;;;;;;;;;;;;;;11.88;49.23;99414.16;5090103;28;20299;-61
2022/03/02 16:15:06;;;;;;;;;;;;;;;11.38;46.79;99411.31;5089323;28;20014;-62
2022/03/02 16:17:45;;;;;;;;;;;;;;;11.11;47.80;99411.22;5091544;28;20417;-61
2022/03/02 16:20:11;;;;;;;;;;;;;;;10.73;48.12;99419.97;5090977;28;20452;-60
2022/03/02 16:22:36;;;;;;;;;;;;;;;10.97;46.89;99418.44;5089602;28;19926;-61
2022/03/02 16:25:14;;;;;;;;;;;;;;;10.73;49.13;99425.94;5090067;28;20009;-62
2022/03/02 16:27:40;;;;;;;;;;;;;;;10.80;47.86;99414.59;5073582;28;19915;-61
2022/03/02 16:30:05;;;;;;;;;;;;;;;10.50;49.44;99407.69;5088244;28;19927;-61
2022/03/02 16:32:30;;;;;;;;;;;;;;;11.13;51.34;99406.00;5069100;28;20409;-61
2022/03/02 16:34:56;;;;;;;;;;;;;;;11.33;50.87;99402.88;5070524;28;19920;-61
2022/03/02 16:37:22;;;;;;;;;;;;;;;11.66;50.16;99399.31;5068997;28;19951;-61
2022/03/02 16:48:56;;;;;;;;;;;;;;;11.31;49.33;99402.91;5065568;28;20050;-61
2022/03/02 16:51:21;;;;;;;;;;;;;;;11.56;49.27;99395.28;5068664;28;20011;-61
2022/03/02 16:53:47;;;;;;;;;;;;;;;10.88;51.71;99404.94;5068133;28;19920;-62
2022/03/02 16:56:12;;;;;;;;;;;;;;;11.51;49.73;99394.59;5048477;28;19920;-62
2022/03/02 16:58:38;;;;;;;;;;;;;;;10.84;48.84;99400.75;5066244;28;19928;-61
2022/03/02 17:01:03;;;;;;;;;;;;;;;11.64;50.00;99400.25;5048555;28;19931;-62
2022/03/02 17:03:29;;;;;;;;;;;;;;;11.19;48.34;99396.38;5067093;28;19920;-62
2022/03/02 17:05:54;;;;;;;;;;;;;;;10.39;50.06;99411.34;5067497;28;19916;-61
2022/03/02 17:08:19;;;;;;;;;;;;;;;11.23;51.86;99403.13;5066651;28;19916;-61
2022/03/02 17:10:49;;;;;;;;;;;;;;;10.87;50.80;99408.41;5066683;28;19916;-62
2022/03/02 17:13:14;;;;;;;;;;;;;;;12.18;52.96;99396.00;5066998;28;19925;-62
2022/03/02 17:15:40;;;;;;;;;;;;;;;11.86;50.67;99397.84;5064772;28;20326;-62
2022/03/02 17:18:06;;;;;;;;;;;;;;;11.48;52.66;99405.00;5068323;28;20292;-62
2022/03/02 17:20:31;;;;;;;;;;;;;;;11.35;53.37;99408.81;5066383;28;19920;-62
2022/03/02 17:22:56;;;;;;;;;;;;;;;11.49;50.93;99401.53;5067172;28;20427;-61
2022/03/02 17:25:22;;;;;;;;;;;;;;;10.56;49.19;99407.50;5065824;28;19932;-62
2022/03/02 17:27:47;;;;;;;;;;;;;;;11.38;53.87;99401.84;5050817;28;19920;-62
2022/03/02 18:15:42;;;;;;;;;;;;;;;10.11;70.21;99433.47;5030647;28;19932;-61
2022/03/02 18:21:11;;;;;;;;;;;;;;;10.71;67.93;99411.44;5031239;28;19928;-61
2022/03/02 18:48:19;;;;;;;;;;;;;;;8.86;88.14;99419.75;5033630;28;19967;-62
2022/03/02 18:50:45;;;;;;;;;;;;;;;8.65;85.20;99416.69;4992078;28;19913;-62
2022/03/02 18:56:13;;;;;;;;;;;;;;;8.33;90.70;99420.63;5032528;28;20433;-62
2022/03/02 19:08:16;;;;;;;;;;;;;;;8.22;92.38;99412.25;5030173;28;20008;-62
2022/03/02 19:41:28;;;;;;;;;;;;;;;8.95;82.28;99406.75;5051340;28;19935;-61
2022/03/02 19:43:54;;;;;;;;;;;;;;;9.26;79.59;99403.56;5051393;28;19912;-62
2022/03/02 19:46:19;;;;;;;;;;;;;;;8.73;82.67;99414.81;5034942;28;19923;-62
2022/03/02 19:48:48;;;;;;;;;;;;;;;8.17;86.30;99414.03;5032637;28;19924;-62
2022/03/02 19:51:30;;;;;;;;;;;;;;;9.36;80.32;99405.09;5025984;28;20035;-62
2022/03/02 19:53:56;;;;;;;;;;;;;;;9.08;79.49;99400.50;5049155;28;19921;-61
2022/03/02 19:59:24;;;;;;;;;;;;;;;8.24;82.83;99414.78;5045821;28;20050;-62
2022/03/02 20:08:16;;;;;;;;;;;;;;;8.78;79.15;99400.19;5045808;28;19921;-62
2022/03/02 20:10:44;;;;;;;;;;;;;;;8.90;76.12;99394.00;5030150;28;19921;-62
2022/03/02 20:19:31;;;;;;;;;;;;;;;9.35;68.71;99390.53;5050936;28;19943;-61
2022/03/02 20:21:56;;;;;;;;;;;;;;;9.33;64.92;99388.00;5053868;28;19924;-61
2022/03/02 20:24:24;;;;;;;;;;;;;;;9.11;65.70;99390.16;5050052;28;20482;-60
2022/03/02 20:26:49;;;;;;;;;;;;;;;8.78;70.46;99392.50;5051244;28;19928;-61
2022/03/02 20:29:15;;;;;;;;;;;;;;;8.40;77.26;99405.13;5052560;28;19923;-60
2022/03/02 20:31:41;;;;;;;;;;;;;;;8.07;78.36;99403.06;5034420;28;19916;-61
2022/03/02 20:34:06;;;;;;;;;;;;;;;8.12;80.38;99401.28;5044881;28;19949;-59
2022/03/02 20:39:35;;;;;;;;;;;;;;;8.93;77.94;99390.50;5046864;28;19932;-61
2022/03/02 20:42:00;;;;;;;;;;;;;;;8.83;75.70;99394.16;5047819;28;19924;-61
2022/03/02 20:44:25;;;;;;;;;;;;;;;9.04;75.64;99390.31;5051518;28;20024;-61
2022/03/02 20:46:51;;;;;;;;;;;;;;;9.15;74.42;99396.94;5030173;28;19916;-62
2022/03/02 20:49:21;;;;;;;;;;;;;;;9.09;70.66;99388.50;5031035;28;19994;-62
2022/03/02 20:51:46;;;;;;;;;;;;;;;8.84;72.71;99395.81;5048064;28;19920;-62
2022/03/02 20:54:12;;;;;;;;;;;;;;;9.26;72.26;99395.84;5049647;28;19916;-61
2022/03/02 20:56:38;;;;;;;;;;;;;;;9.10;67.42;99392.75;5050072;28;19970;-61
2022/03/02 20:59:04;;;;;;;;;;;;;;;8.92;64.40;99394.81;5039342;28;19917;-61
2022/03/02 21:01:29;;;;;;;;;;;;;;;8.92;67.59;99399.09;5045487;28;19973;-62
2022/03/02 21:03:55;;;;;;;;;;;;;;;8.92;68.60;99401.69;5047992;28;19948;-62
2022/03/02 21:06:20;;;;;;;;;;;;;;;9.03;68.38;99404.84;5047646;28;19921;-61
2022/03/02 21:08:45;;;;;;;;;;;;;;;8.05;74.92;99406.50;5048358;28;19943;-62
2022/03/02 21:11:11;;;;;;;;;;;;;;;8.28;75.00;99412.16;5049361;28;19985;-61
2022/03/02 21:13:37;;;;;;;;;;;;;;;7.98;75.19;99408.31;5045521;28;20614;-62
2022/03/02 21:16:03;;;;;;;;;;;;;;;8.33;76.51;99415.50;5029209;28;19921;-60
2022/03/02 21:18:30;;;;;;;;;;;;;;;8.26;77.71;99411.34;5046186;28;19912;-61
2022/03/02 21:20:55;;;;;;;;;;;;;;;7.44;83.06;99411.66;5047242;28;19955;-61
2022/03/02 21:23:22;;;;;;;;;;;;;;;7.22;92.62;99418.72;5039692;28;19975;-61
2022/03/02 21:25:48;;;;;;;;;;;;;;;6.53;96.87;99414.34;5049694;28;19935;-62
2022/03/02 21:28:14;;;;;;;;;;;;;;;6.36;100.00;99423.84;5029868;28;19920;-62
2022/03/02 21:30:40;;;;;;;;;;;;;;;6.13;100.00;99414.66;5048334;28;20004;-61
2022/03/02 21:33:05;;;;;;;;;;;;;;;6.09;100.00;99413.00;5048139;28;19917;-61
2022/03/02 21:35:30;;;;;;;;;;;;;;;6.48;100.00;99405.84;5039689;28;19921;-62
2022/03/02 21:37:56;;;;;;;;;;;;;;;6.02;100.00;99416.44;5037886;28;19924;-62
2022/03/02 21:40:21;;;;;;;;;;;;;;;6.11;100.00;99421.47;5047057;28;19935;-62
2022/03/02 21:42:49;;;;;;;;;;;;;;;6.41;100.00;99411.88;5039301;28;19978;-62
2022/03/02 21:45:15;;;;;;;;;;;;;;;6.42;100.00;99409.31;5046039;28;19916;-61
2022/03/02 21:47:43;;;;;;;;;;;;;;;6.73;100.00;99401.34;5036936;28;19924;-61
2022/03/02 21:50:09;;;;;;;;;;;;;;;6.73;100.00;99390.25;5042561;28;20297;-61
2022/03/02 21:52:35;;;;;;;;;;;;;;;6.67;100.00;99392.00;5049586;28;19928;-61
2022/03/02 21:55:00;;;;;;;;;;;;;;;6.38;100.00;99394.00;5053089;28;20437;-61
2022/03/02 21:57:26;;;;;;;;;;;;;;;6.59;100.00;99390.38;5053769;28;20408;-61
2022/03/02 21:59:51;;;;;;;;;;;;;;;6.08;100.00;99395.94;5051543;28;19998;-61
2022/03/02 22:02:17;;;;;;;;;;;;;;;6.26;100.00;99400.91;5044398;28;20404;-61
2022/03/02 22:04:42;;;;;;;;;;;;;;;6.30;100.00;99390.66;5036953;28;20385;-61
2022/03/02 22:07:07;;;;;;;;;;;;;;;6.17;100.00;99385.63;5051795;28;20274;-61
2022/03/02 22:09:33;;;;;;;;;;;;;;;5.97;100.00;99392.59;5053168;28;19962;-61
2022/03/02 22:11:58;;;;;;;;;;;;;;;6.20;100.00;99387.31;5046647;28;19916;-61
2022/03/02 22:14:23;;;;;;;;;;;;;;;5.77;100.00;99393.56;5042257;28;19948;-62
2022/03/02 22:16:50;;;;;;;;;;;;;;;6.07;100.00;99387.44;5037697;28;19920;-61
2022/03/02 22:19:16;;;;;;;;;;;;;;;5.88;100.00;99385.81;5049977;28;19960;-61
2022/03/02 22:21:41;;;;;;;;;;;;;;;6.08;100.00;99385.72;5050384;28;19960;-61
2022/03/02 22:24:06;;;;;;;;;;;;;;;6.32;100.00;99378.69;5047079;28;19916;-61
2022/03/02 22:26:32;;;;;;;;;;;;;;;6.62;99.91;99373.31;5054885;28;20563;-62
2022/03/02 22:28:57;;;;;;;;;;;;;;;6.62;98.28;99373.31;5054713;28;20302;-62
2022/03/02 22:31:22;;;;;;;;;;;;;;;5.98;99.51;99379.81;5053179;28;19913;-61
2022/03/02 22:33:48;;;;;;;;;;;;;;;5.82;100.00;99386.72;5054546;28;19963;-61
2022/03/02 22:36:14;;;;;;;;;;;;;;;6.46;98.96;99374.31;5048097;28;20706;-61
2022/03/02 22:38:39;;;;;;;;;;;;;;;6.22;99.89;99381.31;5040972;28;19916;-61
2022/03/02 22:41:04;;;;;;;;;;;;;;;6.15;98.80;99377.13;5043284;28;19975;-61
2022/03/02 22:43:30;;;;;;;;;;;;;;;5.88;100.00;99383.25;5037249;28;19924;-62
2022/03/02 22:45:55;;;;;;;;;;;;;;;5.68;100.00;99385.97;5053988;28;20005;-61
2022/03/02 22:48:20;;;;;;;;;;;;;;;5.80;100.00;99393.53;5052149;28;19974;-62
2022/03/02 22:50:51;;;;;;;;;;;;;;;6.31;96.61;99380.41;5052828;28;20550;-61
2022/03/02 22:53:17;;;;;;;;;;;;;;;6.11;99.32;99390.78;5046846;28;19925;-61
2022/03/02 22:55:42;;;;;;;;;;;;;;;5.70;100.00;99391.03;5043863;28;20278;-62
2022/03/02 22:58:10;;;;;;;;;;;;;;;5.49;100.00;99392.03;5051519;28;20397;-62
2022/03/02 23:00:47;;;;;;;;;;;;;;;5.39;100.00;99394.63;5051682;28;19913;-62
2022/03/02 23:03:14;;;;;;;;;;;;;;;5.82;99.61;99391.00;5051955;28;19921;-62
2022/03/02 23:14:00;;;;;;;;;;;;;;;6.09;98.26;99382.31;5043390;28;20031;-61
2022/03/02 23:16:29;;;;;;;;;;;;;;;5.95;97.70;99384.09;5054111;28;19921;-62
2022/03/02 23:18:54;;;;;;;;;;;;;;;5.69;100.00;99379.16;5039029;28;19923;-61
2022/03/02 23:21:20;;;;;;;;;;;;;;;5.64;100.00;99381.72;5039847;28;19921;-62
2022/03/02 23:23:45;;;;;;;;;;;;;;;5.37;100.00;99375.91;5051611;28;19923;-61
2022/03/02 23:26:10;;;;;;;;;;;;;;;5.61;99.97;99379.16;5036339;28;20347;-61
2022/03/02 23:28:36;;;;;;;;;;;;;;;6.08;98.35;99371.22;5050338;28;19920;-61
2022/03/02 23:31:04;;;;;;;;;;;;;;;6.07;98.18;99371.25;5053761;28;19952;-61
2022/03/02 23:33:29;;;;;;;;;;;;;;;5.78;97.61;99377.38;5051935;28;20290;-61
2022/03/02 23:35:55;;;;;;;;;;;;;;;5.35;98.65;99387.81;5038997;28;19999;-61
2022/03/02 23:38:20;;;;;;;;;;;;;;;5.14;100.00;99382.81;5047816;28;19916;-62
2022/03/02 23:40:45;;;;;;;;;;;;;;;5.01;100.00;99382.84;5053392;28;19917;-62
2022/03/02 23:43:10;;;;;;;;;;;;;;;5.13;100.00;99383.66;5052641;28;20016;-62
2022/03/02 23:45:36;;;;;;;;;;;;;;;4.82;100.00;99387.16;5043027;28;19932;-62
2022/03/02 23:48:01;;;;;;;;;;;;;;;4.70;100.00;99386.34;5065512;22;20015;-59
2022/03/02 23:50:26;;;;;;;;;;;;;;;4.95;100.00;99382.88;5074334;28;19934;-60
2022/03/02 23:52:52;;;;;;;;;;;;;;;5.12;100.00;99379.44;5072230;28;19912;-57
2022/03/02 23:55:17;;;;;;;;;;;;;;;5.15;100.00;99375.13;5071511;28;19916;-58
2022/03/02 23:57:42;;;;;;;;;;;;;;;5.42;100.00;99370.78;5071144;28;20007;-58
